Terminal Aerodrome Forecast
Issued by NWS

Home | Current Version | Previous Version | Text Only | Print | Product List | Glossary On
Versions: 1 2 3 4 5 6 7 8 9 10 11 12 13 14
000
FTAK31 PANC 161135
TAFADQ
TAF
PADQ 161135Z 1612/1712 25004KT P6SM BKN025 OVC040
      TEMPO 1612/1616 SCT025
     FM162200 22010KT P6SM -RA SCT020 OVC035
     FM170600 22006KT P6SM VCSH SCT035 BKN100=

USA.gov is the U.S. government's official web portal to all federal, state and local government web resources and services.